Time;durP1;ratioP1;P1;durP2;ratioP2;P2;SDS_P1;SDS_P2;PMS_P1;PMS_P2;Temp;Humidity;BMP_temperature;BMP_pressure;BME280_temperature;BME280_humidity;BME280_pressure;Samples;Min_cycle;Max_cycle;Signal;HPM_P1;HPM_P2
2023/05/23 00:03:21;;;;;;;1.33;1.00;;;;;;;17.84;47.13;100770.13;15689509;28;20037;-49
2023/05/23 00:10:54;;;;;;;2.55;1.27;;;;;;;17.07;46.55;100730.50;15664749;28;20449;-49
2023/05/23 00:18:29;;;;;;;2.08;0.95;;;;;;;17.42;45.88;100748.25;15689346;28;20049;-49
2023/05/23 00:26:02;;;;;;;1.88;1.17;;;;;;;16.99;46.62;100740.97;15687014;28;20128;-49
2023/05/23 00:33:42;;;;;;;0.93;0.50;;;;;;;17.41;47.64;100745.78;15678269;28;20041;-48
2023/05/23 00:41:15;;;;;;;2.08;0.93;;;;;;;17.20;45.94;100737.41;15667205;28;20036;-50
2023/05/23 00:48:49;;;;;;;0.73;0.63;;;;;;;17.53;46.49;100719.31;15653871;28;20041;-48
2023/05/23 00:56:25;;;;;;;1.75;1.23;;;;;;;17.80;46.07;100728.28;15672996;28;20052;-54
2023/05/23 01:04:01;;;;;;;3.15;1.60;;;;;;;17.84;46.50;100715.81;15659258;28;20076;-51
2023/05/23 01:11:42;;;;;;;11.20;1.38;;;;;;;17.80;47.37;100716.59;15675671;28;20109;-51
2023/05/23 01:19:37;;;;;;;0.95;0.65;;;;;;;17.62;48.14;100716.94;15676833;28;20182;-49
2023/05/23 01:27:23;;;;;;;1.55;0.77;;;;;;;17.57;48.00;100712.28;15659276;28;20037;-48
2023/05/23 01:34:59;;;;;;;0.88;0.70;;;;;;;17.47;47.80;100710.31;15684350;28;20052;-48
2023/05/23 01:42:32;;;;;;;2.33;1.27;;;;;;;17.47;48.67;100682.34;15674310;28;20055;-48
2023/05/23 01:50:07;;;;;;;1.40;0.82;;;;;;;16.89;48.95;100747.09;15659730;28;20136;-49
2023/05/23 01:57:47;;;;;;;3.53;0.93;;;;;;;16.91;49.83;100714.31;15657998;28;20037;-49
2023/05/23 02:05:22;;;;;;;1.45;1.15;;;;;;;16.91;49.98;100706.97;15682624;28;20043;-52
2023/05/23 02:12:54;;;;;;;0.70;0.57;;;;;;;16.82;50.30;100698.47;15684279;28;20465;-48
2023/05/23 02:20:28;;;;;;;2.60;0.90;;;;;;;17.07;50.49;100697.16;15673686;28;20071;-51
2023/05/23 02:28:01;;;;;;;5.63;1.77;;;;;;;17.08;49.75;100694.19;15670167;28;20303;-54
2023/05/23 02:35:36;;;;;;;1.50;0.82;;;;;;;17.14;50.67;100695.03;15681197;28;20155;-50
2023/05/23 02:43:09;;;;;;;1.52;1.02;;;;;;;17.00;51.89;100693.81;15656234;28;20244;-51
2023/05/23 02:50:43;;;;;;;1.95;1.05;;;;;;;17.05;51.42;100680.28;15650335;28;20063;-47
2023/05/23 02:58:16;;;;;;;2.53;1.27;;;;;;;16.93;51.77;100660.66;15678237;23;20045;-49
2023/05/23 03:05:50;;;;;;;1.08;0.85;;;;;;;17.08;52.40;100706.91;15556016;28;20085;-46
2023/05/23 03:13:23;;;;;;;2.47;1.55;;;;;;;16.98;52.42;100696.78;15609017;28;20053;-52
2023/05/23 03:20:58;;;;;;;1.17;0.85;;;;;;;17.27;52.78;100677.56;15681999;28;20333;-49
2023/05/23 03:28:31;;;;;;;0.95;0.88;;;;;;;15.92;54.74;100661.72;15653264;28;20509;-53
2023/05/23 03:36:08;;;;;;;1.45;1.30;;;;;;;16.07;53.79;100645.69;15626993;28;20489;-50
2023/05/23 03:43:40;;;;;;;2.80;1.40;;;;;;;17.14;51.38;100654.34;15621566;28;20106;-47
2023/05/23 03:51:15;;;;;;;3.15;1.15;;;;;;;17.36;51.13;100672.50;15647905;28;20069;-49
2023/05/23 03:58:48;;;;;;;2.10;1.10;;;;;;;17.38;52.40;100683.88;15650556;28;20041;-47
2023/05/23 04:06:23;;;;;;;2.55;1.40;;;;;;;17.36;52.68;100681.44;15656505;28;20115;-51
2023/05/23 04:13:57;;;;;;;1.20;0.80;;;;;;;17.29;53.54;100680.81;15659326;28;20140;-51
2023/05/23 04:21:31;;;;;;;2.55;1.65;;;;;;;16.97;56.46;100688.88;15636162;28;20129;-48
2023/05/23 04:29:14;;;;;;;2.88;1.42;;;;;;;17.11;55.08;100689.31;15656027;28;20053;-48
2023/05/23 04:36:52;;;;;;;1.50;0.93;;;;;;;17.32;53.92;100680.31;15665311;28;20105;-50
2023/05/23 04:44:29;;;;;;;4.97;1.25;;;;;;;15.90;59.87;100699.06;15651567;28;20041;-51
2023/05/23 04:52:22;;;;;;;1.73;1.25;;;;;;;16.53;58.26;100691.56;15636223;28;20125;-52
2023/05/23 04:59:56;;;;;;;3.60;0.85;;;;;;;16.56;58.25;100691.91;15640149;28;20106;-50
2023/05/23 05:07:31;;;;;;;1.48;1.23;;;;;;;16.97;57.25;100680.75;15662020;28;20292;-50
2023/05/23 05:15:05;;;;;;;2.03;1.08;;;;;;;17.22;56.77;100677.50;15622448;28;20086;-49
2023/05/23 05:22:41;;;;;;;1.45;1.15;;;;;;;17.04;57.84;100697.66;15642021;28;20052;-49
2023/05/23 05:30:16;;;;;;;4.07;1.77;;;;;;;17.19;56.45;100684.25;15672508;28;20077;-49
2023/05/23 05:38:04;;;;;;;2.75;1.33;;;;;;;17.14;57.53;100691.50;15634168;28;20041;-53
2023/05/23 05:45:38;;;;;;;1.52;0.95;;;;;;;17.27;56.27;100691.13;15655730;28;20502;-50
2023/05/23 05:53:13;;;;;;;2.55;1.42;;;;;;;17.29;57.52;100689.78;15657828;28;20070;-53
2023/05/23 06:00:46;;;;;;;4.00;1.25;;;;;;;17.41;57.53;100686.09;15672567;28;20073;-51
2023/05/23 06:08:20;;;;;;;1.60;1.23;;;;;;;17.45;57.93;100688.03;15694707;28;20116;-52
2023/05/23 06:15:54;;;;;;;2.38;1.15;;;;;;;17.66;56.87;100693.66;15689804;28;20060;-54
2023/05/23 06:23:30;;;;;;;2.25;1.75;;;;;;;17.78;56.01;100688.91;15650177;28;20102;-50
2023/05/23 06:31:03;;;;;;;3.05;1.48;;;;;;;18.39;53.44;100696.66;15669117;28;20049;-51
2023/05/23 06:38:37;;;;;;;2.72;1.15;;;;;;;18.10;52.91;100703.28;15689625;28;20051;-51
2023/05/23 06:46:10;;;;;;;2.63;1.50;;;;;;;18.73;52.83;100691.69;15687427;28;20033;-51
2023/05/23 06:53:44;;;;;;;3.17;1.50;;;;;;;18.94;52.84;100698.03;15674983;28;20055;-49
2023/05/23 07:01:17;;;;;;;2.92;1.52;;;;;;;19.71;49.42;100697.09;15686082;28;20435;-52
2023/05/23 07:08:55;;;;;;;4.18;1.63;;;;;;;20.64;48.12;100701.34;15652394;28;20040;-50
2023/05/23 07:16:30;;;;;;;1.77;0.88;;;;;;;20.49;47.70;100699.50;15654446;28;20045;-51
2023/05/23 07:24:14;;;;;;;5.18;1.10;;;;;;;19.62;48.72;100696.00;15685549;28;20049;-52
2023/05/23 07:31:48;;;;;;;4.65;1.35;;;;;;;19.72;48.11;100689.75;15685650;28;20037;-47
2023/05/23 07:39:23;;;;;;;2.63;0.90;;;;;;;19.13;48.27;100698.34;15666783;28;20059;-51
2023/05/23 07:46:58;;;;;;;2.75;1.40;;;;;;;19.95;47.34;100704.72;15654843;28;20569;-47
2023/05/23 07:54:33;;;;;;;6.40;2.17;;;;;;;20.02;48.07;100702.56;15699918;28;20081;-48
2023/05/23 08:02:08;;;;;;;3.90;2.00;;;;;;;20.04;49.65;100711.25;15692009;28;20105;-49
2023/05/23 08:09:42;;;;;;;3.55;1.33;;;;;;;20.20;49.39;100718.34;15661005;28;20075;-48
2023/05/23 08:17:19;;;;;;;1.27;0.70;;;;;;;19.73;52.60;100735.78;15663779;28;20044;-48
2023/05/23 08:24:54;;;;;;;1.98;1.15;;;;;;;20.66;51.79;100731.06;15682872;28;20064;-47
2023/05/23 08:32:28;;;;;;;2.03;1.42;;;;;;;20.27;53.18;100737.13;15690900;28;20036;-50
2023/05/23 08:40:03;;;;;;;3.10;1.73;;;;;;;21.23;52.85;100748.84;15670811;28;20048;-52
2023/05/23 08:47:51;;;;;;;3.25;1.88;;;;;;;21.24;53.16;100755.94;15680789;28;20041;-51
2023/05/23 08:55:29;;;;;;;3.85;1.48;;;;;;;21.18;52.83;100751.63;15697131;28;20089;-47
2023/05/23 09:03:03;;;;;;;4.78;2.42;;;;;;;20.49;56.47;100762.19;15628367;23;20486;-49
2023/05/23 09:10:56;;;;;;;3.78;2.33;;;;;;;20.18;58.27;100772.28;15583550;28;20065;-54
2023/05/23 09:18:35;;;;;;;3.30;2.38;;;;;;;20.73;58.18;100784.22;15589433;28;20044;-53
2023/05/23 09:26:12;;;;;;;5.82;2.90;;;;;;;20.79;57.14;100783.13;15555929;28;20605;-51
2023/05/23 09:33:47;;;;;;;6.18;2.42;;;;;;;20.54;58.59;100791.38;15573343;28;20049;-54
2023/05/23 09:41:23;;;;;;;7.05;3.58;;;;;;;20.58;58.50;100787.00;15591941;28;20136;-53
2023/05/23 09:48:59;;;;;;;5.05;2.80;;;;;;;20.33;59.75;100785.94;15561856;28;20399;-53
2023/05/23 09:56:37;;;;;;;6.30;2.72;;;;;;;21.31;57.92;100786.50;15589231;28;20041;-48
2023/05/23 10:04:10;;;;;;;4.45;2.17;;;;;;;18.74;63.10;100808.34;15582250;28;20552;-52
2023/05/23 10:12:33;;;;;;;7.40;3.83;;;;;;;17.30;67.88;100772.81;15569965;28;20041;-50
2023/05/23 10:20:12;;;;;;;8.68;3.30;;;;;;;18.37;65.19;100813.75;15570039;28;20077;-53
2023/05/23 10:27:48;;;;;;;7.15;3.47;;;;;;;18.36;64.69;100821.09;15529902;28;20145;-54
2023/05/23 10:35:27;;;;;;;7.70;3.47;;;;;;;18.64;63.83;100816.41;15570923;28;20042;-52
2023/05/23 10:43:05;;;;;;;6.03;3.78;;;;;;;18.43;64.03;100822.78;15530099;28;20056;-52
2023/05/23 10:50:40;;;;;;;7.32;3.88;;;;;;;18.12;65.17;100824.44;15569636;28;20137;-53
2023/05/23 10:58:17;;;;;;;5.70;3.58;;;;;;;17.87;64.90;100833.16;15591505;28;20466;-51
2023/05/23 11:05:54;;;;;;;10.40;3.58;;;;;;;17.71;65.76;100837.56;15589948;28;20041;-55
2023/05/23 11:13:58;;;;;;;8.38;3.28;;;;;;;17.63;66.16;100841.56;15525916;28;20186;-54
2023/05/23 11:21:34;;;;;;;5.45;3.22;;;;;;;17.72;65.19;100836.47;15563278;28;20131;-51
2023/05/23 11:29:09;;;;;;;7.47;3.75;;;;;;;17.84;65.35;100842.63;15596278;28;20052;-53
2023/05/23 11:36:43;;;;;;;6.13;3.25;;;;;;;17.88;65.18;100824.75;15602037;28;20105;-53
2023/05/23 11:44:16;;;;;;;4.07;2.55;;;;;;;17.70;64.96;100827.78;15578092;28;20045;-53
2023/05/23 11:51:50;;;;;;;5.75;2.88;;;;;;;18.00;64.34;100830.00;15612695;28;20141;-55
2023/05/23 11:59:24;;;;;;;5.72;2.67;;;;;;;17.91;64.21;100835.13;15580240;28;20046;-54
2023/05/23 12:06:58;;;;;;;5.43;3.85;;;;;;;18.20;63.41;100840.25;15574237;28;20093;-51
2023/05/23 12:14:33;;;;;;;7.07;3.03;;;;;;;18.58;62.91;100839.19;15593219;28;20045;-52
2023/05/23 12:22:08;;;;;;;5.78;3.40;;;;;;;18.59;62.82;100832.69;15597483;28;20510;-52
2023/05/23 12:29:41;;;;;;;4.32;2.55;;;;;;;18.44;62.93;100848.88;15535017;28;20128;-54
2023/05/23 12:37:18;;;;;;;5.70;2.60;;;;;;;18.59;62.59;100849.00;15573133;28;20080;-54
2023/05/23 12:44:53;;;;;;;7.32;3.75;;;;;;;18.48;62.84;100848.09;15597729;28;20049;-56
2023/05/23 12:52:28;;;;;;;6.68;3.20;;;;;;;19.19;61.30;100850.47;15594742;28;20095;-56
2023/05/23 13:00:01;;;;;;;3.72;2.63;;;;;;;17.84;65.02;100843.44;15570919;28;20045;-53
2023/05/23 13:07:37;;;;;;;5.18;2.50;;;;;;;17.72;66.12;100847.34;15577296;28;20046;-55
2023/05/23 13:15:11;;;;;;;5.45;2.38;;;;;;;17.98;65.12;100843.03;15595066;28;20077;-52
2023/05/23 13:22:45;;;;;;;5.68;3.45;;;;;;;18.36;64.95;100853.69;15592175;28;20498;-55
2023/05/23 13:30:18;;;;;;;5.57;2.83;;;;;;;18.82;63.29;100853.25;15572042;28;20092;-53
2023/05/23 13:37:54;;;;;;;6.10;3.00;;;;;;;18.24;64.40;100871.28;15576483;28;20487;-51
2023/05/23 13:45:27;;;;;;;7.78;3.50;;;;;;;17.64;65.80;100878.50;15570869;28;20114;-50
2023/05/23 13:53:02;;;;;;;6.15;3.33;;;;;;;17.97;65.91;100884.88;15532672;28;20042;-53
2023/05/23 14:00:35;;;;;;;5.88;3.63;;;;;;;17.88;66.14;100887.22;15538044;28;20069;-53
2023/05/23 14:08:10;;;;;;;;;;;;;;;17.51;67.47;100889.72;15558824;28;20475;-53
2023/05/23 14:15:43;;;;;;;10.27;3.97;;;;;;;17.51;67.20;100898.69;15553567;28;20437;-51
2023/05/23 14:23:17;;;;;;;7.90;4.10;;;;;;;17.57;67.45;100903.09;15534814;28;20064;-54
2023/05/23 14:30:50;;;;;;;7.20;2.95;;;;;;;17.12;69.96;100908.75;15591038;28;20423;-52
2023/05/23 14:38:24;;;;;;;5.53;3.72;;;;;;;16.61;73.38;100907.13;15561976;28;20049;-49
2023/05/23 14:45:59;;;;;;;3.55;1.88;;;;;;;16.74;73.10;100910.38;15565237;28;20124;-51
2023/05/23 14:53:33;;;;;;;4.97;2.38;;;;;;;16.74;73.31;100915.78;15583357;28;20045;-50
2023/05/23 15:01:06;;;;;;;1.95;1.25;;;;;;;15.87;74.32;100934.22;15582359;28;20410;-51
2023/05/23 15:08:41;;;;;;;3.22;1.63;;;;;;;15.76;73.93;100952.97;15619381;28;20129;-50
2023/05/23 15:16:15;;;;;;;3.83;2.15;;;;;;;15.72;73.01;100970.75;15575642;28;20048;-51
2023/05/23 15:23:49;;;;;;;2.20;1.98;;;;;;;15.50;73.54;100989.44;15578331;28;20137;-53
2023/05/23 15:31:24;;;;;;;4.85;2.65;;;;;;;15.09;73.48;100992.25;15588736;28;20053;-53
2023/05/23 15:38:58;;;;;;;3.85;1.73;;;;;;;15.24;71.43;101001.56;15564992;28;20357;-51
2023/05/23 15:46:31;;;;;;;2.20;1.50;;;;;;;14.81;71.96;101004.56;15560682;28;20087;-51
2023/05/23 15:54:06;;;;;;;2.00;1.35;;;;;;;14.73;71.95;101015.69;15559479;28;20414;-50
2023/05/23 16:01:41;;;;;;;2.03;1.48;;;;;;;14.89;71.01;101009.63;15566396;28;20052;-50
2023/05/23 16:09:15;;;;;;;2.38;1.00;;;;;;;14.89;71.10;101016.91;15608923;28;20121;-50
2023/05/23 16:16:48;;;;;;;4.88;1.50;;;;;;;14.52;72.09;101031.38;15578493;28;20396;-53
2023/05/23 16:24:23;;;;;;;2.42;1.10;;;;;;;14.68;71.90;101024.50;15554274;28;20042;-53
2023/05/23 16:31:56;;;;;;;11.65;1.35;;;;;;;14.80;72.23;101033.47;15576714;28;20045;-52
2023/05/23 16:39:30;;;;;;;1.88;1.48;;;;;;;14.80;70.94;101030.75;15571820;28;20046;-50
2023/05/23 16:47:03;;;;;;;1.98;1.17;;;;;;;14.36;70.55;101045.50;15550116;28;20391;-50
2023/05/23 16:54:37;;;;;;;0.45;0.40;;;;;;;14.31;70.67;101053.44;15567486;28;20057;-50
2023/05/23 17:02:14;;;;;;;1.50;0.60;;;;;;;14.12;71.85;101068.00;15568592;28;20041;-50
2023/05/23 17:09:49;;;;;;;0.60;0.50;;;;;;;14.04;71.84;101066.44;15568069;28;20396;-51
2023/05/23 17:17:21;;;;;;;0.75;0.45;;;;;;;14.05;72.32;101081.59;15574834;28;20179;-51
2023/05/23 17:24:58;;;;;;;0.08;0.00;;;;;;;13.97;72.80;101090.78;15571658;28;20556;-51
2023/05/23 17:32:31;;;;;;;0.47;0.32;;;;;;;13.70;73.59;101094.81;15562465;28;20054;-53
2023/05/23 17:40:06;;;;;;;0.20;0.20;;;;;;;13.76;72.89;101112.81;15559309;28;20042;-53
2023/05/23 17:47:40;;;;;;;1.10;0.57;;;;;;;13.64;73.78;101117.28;15538135;28;20442;-56
2023/05/23 17:55:14;;;;;;;;;;;;;;;13.42;73.76;101119.53;15557096;28;20054;-50
2023/05/23 18:02:46;;;;;;;0.73;0.63;;;;;;;13.84;72.81;101120.59;15558024;28;19925;-50
2023/05/23 18:10:23;;;;;;;6.68;1.58;;;;;;;13.63;73.17;101115.63;15556498;28;20595;-50
2023/05/23 18:17:56;;;;;;;1.15;0.70;;;;;;;13.86;73.21;101137.41;15585881;28;20425;-53
2023/05/23 18:25:30;;;;;;;3.63;0.60;;;;;;;13.97;72.77;101146.66;15569820;28;20498;-55
2023/05/23 18:33:06;;;;;;;0.95;0.70;;;;;;;13.78;73.53;101153.88;15587486;28;20049;-53
2023/05/23 18:40:40;;;;;;;1.52;1.15;;;;;;;14.04;72.50;101166.31;15562558;28;20141;-51
2023/05/23 18:48:13;;;;;;;0.65;0.55;;;;;;;13.87;72.35;101168.75;15548599;28;20049;-51
2023/05/23 18:55:48;;;;;;;1.63;0.65;;;;;;;14.18;70.84;101181.34;15590533;28;20457;-51
2023/05/23 19:03:20;;;;;;;0.68;0.65;;;;;;;13.97;71.64;101197.94;15564695;28;20037;-51
2023/05/23 19:10:59;;;;;;;2.20;0.97;;;;;;;13.49;72.38;101209.31;15560577;28;20589;-52
2023/05/23 19:18:37;;;;;;;1.40;0.82;;;;;;;13.63;72.15;101218.97;15552703;28;20305;-51
2023/05/23 19:26:12;;;;;;;0.82;0.40;;;;;;;13.61;71.91;101222.91;15601798;28;20099;-54
2023/05/23 19:33:53;;;;;;;0.50;0.45;;;;;;;13.32;72.39;101243.22;15601225;28;20076;-52
2023/05/23 19:41:33;;;;;;;1.67;0.60;;;;;;;13.47;71.23;101247.25;15537117;28;20049;-52
2023/05/23 19:49:06;;;;;;;1.08;0.98;;;;;;;13.36;70.44;101261.44;15549246;28;20125;-50
2023/05/23 19:56:40;;;;;;;1.17;0.80;;;;;;;13.58;69.92;101275.44;15551349;28;20605;-49
2023/05/23 20:04:13;;;;;;;1.10;0.70;;;;;;;13.45;70.14;101280.91;15555814;28;20046;-49
2023/05/23 20:11:48;;;;;;;0.45;0.45;;;;;;;13.19;68.50;101296.13;15551550;28;20050;-50
2023/05/23 20:19:20;;;;;;;3.60;1.75;;;;;;;13.20;66.60;101305.06;15569114;28;20092;-53
2023/05/23 20:26:55;;;;;;;1.13;0.60;;;;;;;12.72;66.76;101318.84;15548112;28;20057;-50
2023/05/23 20:34:27;;;;;;;4.47;1.10;;;;;;;12.66;66.49;101331.31;15546137;28;20073;-51
2023/05/23 20:42:02;;;;;;;1.27;0.90;;;;;;;12.87;64.74;101332.09;15575571;28;20049;-50
2023/05/23 20:49:36;;;;;;;0.55;0.55;;;;;;;12.64;65.84;101330.69;15555126;28;20103;-49
2023/05/23 20:57:13;;;;;;;0.82;0.40;;;;;;;12.40;65.51;101344.78;15566616;28;20635;-50
2023/05/23 21:04:46;;;;;;;1.20;0.52;;;;;;;12.63;65.92;101339.78;15678294;22;20440;-49
2023/05/23 21:12:20;;;;;;;7.27;0.63;;;;;;;12.19;66.55;101349.34;15670460;28;20068;-53
2023/05/23 21:19:58;;;;;;;1.85;0.77;;;;;;;12.25;65.76;101350.38;15669966;28;20091;-54
2023/05/23 21:27:39;;;;;;;0.75;0.75;;;;;;;12.37;64.51;101346.03;15652530;28;20135;-54
2023/05/23 21:35:12;;;;;;;0.40;0.40;;;;;;;12.07;65.07;101360.91;15667840;28;20041;-52
2023/05/23 21:42:46;;;;;;;8.80;1.20;;;;;;;12.18;63.33;101368.41;15644846;28;20045;-54
2023/05/23 21:50:19;;;;;;;1.30;0.85;;;;;;;11.75;63.20;101355.25;15646629;28;20041;-55
2023/05/23 21:57:55;;;;;;;0.50;0.50;;;;;;;11.43;63.33;101365.69;15649591;28;20441;-53
2023/05/23 22:05:28;;;;;;;11.07;0.50;;;;;;;11.61;62.22;101365.13;15646526;28;20159;-53
2023/05/23 22:13:10;;;;;;;4.47;0.52;;;;;;;11.59;61.00;101371.72;15646566;28;20049;-55
2023/05/23 22:20:43;;;;;;;1.40;0.75;;;;;;;11.43;61.47;101372.91;15662654;28;20049;-55
2023/05/23 22:28:17;;;;;;;2.88;1.08;;;;;;;11.50;61.46;101371.06;15648999;28;20044;-53
2023/05/23 22:35:50;;;;;;;1.70;0.47;;;;;;;11.14;62.90;101393.63;15665087;28;20053;-53
2023/05/23 22:43:24;;;;;;;0.73;0.37;;;;;;;11.28;63.53;101383.78;15662062;28;20521;-51
2023/05/23 22:50:57;;;;;;;0.75;0.70;;;;;;;11.40;62.92;101389.44;15665963;28;20041;-52
2023/05/23 22:58:31;;;;;;;2.80;1.08;;;;;;;11.16;63.01;101390.75;15647968;28;20290;-55
2023/05/23 23:06:08;;;;;;;2.47;1.10;;;;;;;11.27;63.21;101381.31;15622520;28;20052;-52
2023/05/23 23:13:42;;;;;;;0.20;0.20;;;;;;;11.04;64.41;101390.47;15665182;28;20056;-52
2023/05/23 23:21:18;;;;;;;20.02;1.05;;;;;;;11.14;63.99;101384.75;15670161;28;20413;-53
2023/05/23 23:28:52;;;;;;;3.13;1.47;;;;;;;10.52;66.19;101393.59;15642011;28;20501;-53
2023/05/23 23:36:25;;;;;;;1.73;0.88;;;;;;;11.04;64.57;101390.47;15641774;28;20073;-52
2023/05/23 23:52:05;;;;;;;3.13;2.05;;;;;;;10.29;66.08;101389.28;15671502;28;20130;-54
2023/05/23 23:59:40;;;;;;;1.40;0.77;;;;;;;10.22;66.86;101397.25;15651693;28;20157;-53
